sensor_id;sensor_type;location;lat;lon;timestamp;pressure;altitude;pressure_sealevel;temperature;humidity
4273;BME280;63887;53.656;9.810;2023-04-28T00:02:06;101851.41;;;5.27;85.91
4273;BME280;63887;53.656;9.810;2023-04-28T00:04:33;101845.38;;;5.23;85.36
4273;BME280;63887;53.656;9.810;2023-04-28T00:06:59;101848.88;;;5.22;85.27
4273;BME280;63887;53.656;9.810;2023-04-28T00:09:27;101842.31;;;4.97;87.42
4273;BME280;63887;53.656;9.810;2023-04-28T00:11:53;101849.09;;;5.05;86.55
4273;BME280;63887;53.656;9.810;2023-04-28T00:14:20;101847.16;;;5.20;85.65
4273;BME280;63887;53.656;9.810;2023-04-28T00:16:46;101846.06;;;5.34;84.41
4273;BME280;63887;53.656;9.810;2023-04-28T00:19:13;101843.53;;;5.30;84.33
4273;BME280;63887;53.656;9.810;2023-04-28T00:21:39;101839.31;;;5.24;84.71
4273;BME280;63887;53.656;9.810;2023-04-28T00:24:06;101834.28;;;5.12;86.04
4273;BME280;63887;53.656;9.810;2023-04-28T00:26:34;101828.53;;;4.89;86.98
4273;BME280;63887;53.656;9.810;2023-04-28T00:29:00;101837.22;;;4.88;87.96
4273;BME280;63887;53.656;9.810;2023-04-28T00:31:27;101829.16;;;5.07;86.59
4273;BME280;63887;53.656;9.810;2023-04-28T00:33:53;101828.59;;;4.86;87.80
4273;BME280;63887;53.656;9.810;2023-04-28T00:36:20;101828.50;;;4.90;87.01
4273;BME280;63887;53.656;9.810;2023-04-28T00:38:46;101823.38;;;4.87;86.28
4273;BME280;63887;53.656;9.810;2023-04-28T00:41:12;101817.31;;;4.87;86.12
4273;BME280;63887;53.656;9.810;2023-04-28T00:43:44;101819.06;;;4.85;85.78
4273;BME280;63887;53.656;9.810;2023-04-28T00:46:17;101814.91;;;4.71;86.68
4273;BME280;63887;53.656;9.810;2023-04-28T00:48:45;101810.03;;;4.48;87.52
4273;BME280;63887;53.656;9.810;2023-04-28T00:51:11;101801.25;;;4.57;87.26
4273;BME280;63887;53.656;9.810;2023-04-28T00:53:38;101800.41;;;4.57;87.07
4273;BME280;63887;53.656;9.810;2023-04-28T00:56:05;101803.16;;;4.44;88.06
4273;BME280;63887;53.656;9.810;2023-04-28T00:58:33;101804.16;;;4.34;88.79
4273;BME280;63887;53.656;9.810;2023-04-28T01:01:04;101804.16;;;4.31;88.26
4273;BME280;63887;53.656;9.810;2023-04-28T01:03:33;101799.09;;;4.24;88.45
4273;BME280;63887;53.656;9.810;2023-04-28T01:06:00;101796.50;;;4.24;88.61
4273;BME280;63887;53.656;9.810;2023-04-28T01:08:27;101804.31;;;4.21;88.24
4273;BME280;63887;53.656;9.810;2023-04-28T01:10:54;101797.44;;;4.15;88.70
4273;BME280;63887;53.656;9.810;2023-04-28T01:13:21;101800.19;;;4.04;89.59
4273;BME280;63887;53.656;9.810;2023-04-28T01:15:48;101794.94;;;4.09;89.63
4273;BME280;63887;53.656;9.810;2023-04-28T01:18:16;101790.66;;;4.05;89.44
4273;BME280;63887;53.656;9.810;2023-04-28T01:20:43;101792.41;;;4.01;89.36
4273;BME280;63887;53.656;9.810;2023-04-28T01:23:12;101799.25;;;4.08;89.50
4273;BME280;63887;53.656;9.810;2023-04-28T01:25:40;101795.94;;;3.96;89.87
4273;BME280;63887;53.656;9.810;2023-04-28T01:28:07;101790.75;;;3.96;89.64
4273;BME280;63887;53.656;9.810;2023-04-28T01:30:33;101790.81;;;3.91;89.77
4273;BME280;63887;53.656;9.810;2023-04-28T01:33:00;101791.69;;;3.88;89.72
4273;BME280;63887;53.656;9.810;2023-04-28T01:35:27;101786.50;;;3.85;89.83
4273;BME280;63887;53.656;9.810;2023-04-28T01:37:53;101787.41;;;3.84;89.84
4273;BME280;63887;53.656;9.810;2023-04-28T01:40:20;101790.00;;;3.83;90.05
4273;BME280;63887;53.656;9.810;2023-04-28T01:42:47;101790.97;;;3.74;90.01
4273;BME280;63887;53.656;9.810;2023-04-28T01:45:14;101785.78;;;3.76;90.00
4273;BME280;63887;53.656;9.810;2023-04-28T01:47:40;101781.44;;;3.76;90.27
4273;BME280;63887;53.656;9.810;2023-04-28T01:50:07;101779.78;;;3.69;90.37
4273;BME280;63887;53.656;9.810;2023-04-28T01:52:34;101784.13;;;3.66;90.54
4273;BME280;63887;53.656;9.810;2023-04-28T01:55:00;101785.03;;;3.63;90.67
4273;BME280;63887;53.656;9.810;2023-04-28T01:57:27;101783.38;;;3.57;90.55
4273;BME280;63887;53.656;9.810;2023-04-28T01:59:55;101782.50;;;3.58;90.44
4273;BME280;63887;53.656;9.810;2023-04-28T02:02:21;101778.16;;;3.56;90.50
4273;BME280;63887;53.656;9.810;2023-04-28T02:04:47;101773.88;;;3.52;90.58
4273;BME280;63887;53.656;9.810;2023-04-28T02:07:14;101772.25;;;3.45;90.66
4273;BME280;63887;53.656;9.810;2023-04-28T02:09:40;101767.94;;;3.39;91.37
4273;BME280;63887;53.656;9.810;2023-04-28T02:12:06;101767.94;;;3.44;90.89
4273;BME280;63887;53.656;9.810;2023-04-28T02:14:33;101764.47;;;3.42;90.55
4273;BME280;63887;53.656;9.810;2023-04-28T02:17:01;101757.59;;;3.38;91.01
4273;BME280;63887;53.656;9.810;2023-04-28T02:19:29;101762.78;;;3.36;91.00
4273;BME280;63887;53.656;9.810;2023-04-28T02:21:56;101758.47;;;3.35;90.88
4273;BME280;63887;53.656;9.810;2023-04-28T02:24:22;101757.66;;;3.32;90.80
4273;BME280;63887;53.656;9.810;2023-04-28T02:26:48;101761.16;;;3.27;91.00
4273;BME280;63887;53.656;9.810;2023-04-28T02:29:15;101757.06;;;3.01;92.80
4273;BME280;63887;53.656;9.810;2023-04-28T02:31:41;101752.63;;;3.12;91.69
4273;BME280;63887;53.656;9.810;2023-04-28T02:34:09;101751.75;;;3.16;91.19
4273;BME280;63887;53.656;9.810;2023-04-28T02:36:35;101750.00;;;3.16;91.29
4273;BME280;63887;53.656;9.810;2023-04-28T02:39:02;101745.69;;;3.15;91.11
4273;BME280;63887;53.656;9.810;2023-04-28T02:41:28;101737.13;;;3.07;91.63
4273;BME280;63887;53.656;9.810;2023-04-28T02:43:55;101733.63;;;3.11;91.55
4273;BME280;63887;53.656;9.810;2023-04-28T02:46:22;101735.41;;;3.05;91.47
4273;BME280;63887;53.656;9.810;2023-04-28T02:48:48;101730.16;;;3.12;91.72
4273;BME280;63887;53.656;9.810;2023-04-28T02:51:16;101729.41;;;3.01;91.83
4273;BME280;63887;53.656;9.810;2023-04-28T02:53:43;101725.91;;;3.04;91.88
4273;BME280;63887;53.656;9.810;2023-04-28T02:56:09;101725.16;;;2.91;93.05
4273;BME280;63887;53.656;9.810;2023-04-28T02:58:35;101719.97;;;2.91;92.10
4273;BME280;63887;53.656;9.810;2023-04-28T03:01:02;101712.22;;;2.88;91.76
4273;BME280;63887;53.656;9.810;2023-04-28T03:03:28;101709.59;;;2.92;91.72
4273;BME280;63887;53.656;9.810;2023-04-28T03:05:55;101699.34;;;2.77;92.92
4273;BME280;63887;53.656;9.810;2023-04-28T03:08:23;101696.78;;;2.76;93.25
4273;BME280;63887;53.656;9.810;2023-04-28T03:10:49;101702.75;;;2.81;92.75
4273;BME280;63887;53.656;9.810;2023-04-28T03:13:16;101697.59;;;2.79;92.52
4273;BME280;63887;53.656;9.810;2023-04-28T03:15:42;101685.53;;;2.77;91.94
4273;BME280;63887;53.656;9.810;2023-04-28T03:18:08;101684.69;;;2.75;92.48
4273;BME280;63887;53.656;9.810;2023-04-28T03:20:35;101684.66;;;2.79;92.44
4273;BME280;63887;53.656;9.810;2023-04-28T03:23:01;101683.81;;;2.77;91.99
4273;BME280;63887;53.656;9.810;2023-04-28T03:25:29;101680.38;;;2.74;92.06
4273;BME280;63887;53.656;9.810;2023-04-28T03:27:55;101675.28;;;2.61;92.69
4273;BME280;63887;53.656;9.810;2023-04-28T03:30:22;101677.81;;;2.71;92.36
4273;BME280;63887;53.656;9.810;2023-04-28T03:32:48;101673.41;;;2.82;92.46
4273;BME280;63887;53.656;9.810;2023-04-28T03:35:15;101677.72;;;2.83;91.88
4273;BME280;63887;53.656;9.810;2023-04-28T03:37:41;101677.59;;;2.98;90.45
4273;BME280;63887;53.656;9.810;2023-04-28T03:40:09;101672.41;;;2.96;91.79
4273;BME280;63887;53.656;9.810;2023-04-28T03:42:37;101671.56;;;2.94;91.35
4273;BME280;63887;53.656;9.810;2023-04-28T03:45:04;101664.16;;;3.47;88.67
4273;BME280;63887;53.656;9.810;2023-04-28T03:47:32;101667.53;;;3.52;87.90
4273;BME280;63887;53.656;9.810;2023-04-28T03:49:58;101662.63;;;3.27;88.95
4273;BME280;63887;53.656;9.810;2023-04-28T03:52:25;101654.94;;;3.18;89.67
4273;BME280;63887;53.656;9.810;2023-04-28T03:54:51;101654.22;;;3.04;89.85
4273;BME280;63887;53.656;9.810;2023-04-28T03:57:18;101646.44;;;3.04;90.15
4273;BME280;63887;53.656;9.810;2023-04-28T03:59:45;101650.00;;;2.91;91.03
4273;BME280;63887;53.656;9.810;2023-04-28T04:02:12;101645.53;;;3.08;91.08
4273;BME280;63887;53.656;9.810;2023-04-28T04:04:38;101647.31;;;3.03;90.69
4273;BME280;63887;53.656;9.810;2023-04-28T04:07:05;101646.22;;;3.24;89.37
4273;BME280;63887;53.656;9.810;2023-04-28T04:09:31;101634.91;;;3.33;89.01
4273;BME280;63887;53.656;9.810;2023-04-28T04:11:58;101639.13;;;3.43;88.58
4273;BME280;63887;53.656;9.810;2023-04-28T04:14:25;101637.31;;;3.49;89.13
4273;BME280;63887;53.656;9.810;2023-04-28T04:16:53;101636.41;;;3.53;87.91
4273;BME280;63887;53.656;9.810;2023-04-28T04:19:19;101630.59;;;4.02;85.26
4273;BME280;63887;53.656;9.810;2023-04-28T04:21:48;101622.59;;;4.17;84.78
4273;BME280;63887;53.656;9.810;2023-04-28T04:24:14;101627.09;;;4.06;84.41
4273;BME280;63887;53.656;9.810;2023-04-28T04:26:41;101624.84;;;4.40;83.09
4273;BME280;63887;53.656;9.810;2023-04-28T04:29:07;101628.09;;;3.95;85.68
4273;BME280;63887;53.656;9.810;2023-04-28T04:31:34;101622.94;;;4.52;83.16
4273;BME280;63887;53.656;9.810;2023-04-28T04:34:01;101619.56;;;4.45;82.34
4273;BME280;63887;53.656;9.810;2023-04-28T04:36:29;101618.66;;;4.49;82.48
4273;BME280;63887;53.656;9.810;2023-04-28T04:38:55;101620.56;;;4.38;83.05
4273;BME280;63887;53.656;9.810;2023-04-28T04:41:22;101614.41;;;4.43;82.95
4273;BME280;63887;53.656;9.810;2023-04-28T04:43:48;101611.56;;;4.59;82.17
4273;BME280;63887;53.656;9.810;2023-04-28T04:46:14;101604.94;;;4.90;80.94
4273;BME280;63887;53.656;9.810;2023-04-28T04:48:41;101611.41;;;4.68;81.40
4273;BME280;63887;53.656;9.810;2023-04-28T04:51:09;101603.72;;;4.63;81.59
4273;BME280;63887;53.656;9.810;2023-04-28T04:53:35;101600.34;;;5.04;80.53
4273;BME280;63887;53.656;9.810;2023-04-28T04:56:02;101605.28;;;4.72;81.90
4273;BME280;63887;53.656;9.810;2023-04-28T04:58:29;101598.53;;;4.62;82.09
4273;BME280;63887;53.656;9.810;2023-04-28T05:00:55;101590.09;;;4.98;79.65
4273;BME280;63887;53.656;9.810;2023-04-28T05:03:22;101593.31;;;5.11;79.35
4273;BME280;63887;53.656;9.810;2023-04-28T05:05:48;101593.78;;;4.85;80.99
4273;BME280;63887;53.656;9.810;2023-04-28T05:08:16;101585.00;;;4.92;80.45
4273;BME280;63887;53.656;9.810;2023-04-28T05:10:43;101583.50;;;5.25;78.81
4273;BME280;63887;53.656;9.810;2023-04-28T05:13:09;101579.81;;;5.37;78.30
4273;BME280;63887;53.656;9.810;2023-04-28T05:15:36;101582.28;;;5.43;77.45
4273;BME280;63887;53.656;9.810;2023-04-28T05:18:02;101578.63;;;5.53;77.69
4273;BME280;63887;53.656;9.810;2023-04-28T05:20:34;101584.94;;;5.40;78.41
4273;BME280;63887;53.656;9.810;2023-04-28T05:23:01;101578.09;;;5.36;78.69
4273;BME280;63887;53.656;9.810;2023-04-28T05:25:29;101589.94;;;5.51;78.20
4273;BME280;63887;53.656;9.810;2023-04-28T05:27:55;101573.31;;;6.00;76.01
4273;BME280;63887;53.656;9.810;2023-04-28T05:30:22;101577.25;;;6.16;75.29
4273;BME280;63887;53.656;9.810;2023-04-28T05:32:48;101567.16;;;6.38;73.76
4273;BME280;63887;53.656;9.810;2023-04-28T05:35:15;101565.28;;;6.44;73.86
4273;BME280;63887;53.656;9.810;2023-04-28T05:37:42;101566.19;;;6.77;72.28
4273;BME280;63887;53.656;9.810;2023-04-28T05:40:09;101558.75;;;6.95;71.54
4273;BME280;63887;53.656;9.810;2023-04-28T05:42:37;101557.81;;;6.65;71.65
4273;BME280;63887;53.656;9.810;2023-04-28T05:45:05;101553.72;;;6.88;71.41
4273;BME280;63887;53.656;9.810;2023-04-28T05:47:32;101545.06;;;7.19;70.25
4273;BME280;63887;53.656;9.810;2023-04-28T05:49:58;101544.91;;;7.24;69.47
4273;BME280;63887;53.656;9.810;2023-04-28T05:52:25;101539.41;;;7.34;69.23
4273;BME280;63887;53.656;9.810;2023-04-28T05:54:51;101543.00;;;7.89;67.24
4273;BME280;63887;53.656;9.810;2023-04-28T05:57:18;101538.13;;;8.84;64.40
4273;BME280;63887;53.656;9.810;2023-04-28T05:59:46;101535.97;;;10.33;59.41
4273;BME280;63887;53.656;9.810;2023-04-28T06:02:12;101534.00;;;12.48;51.54
4273;BME280;63887;53.656;9.810;2023-04-28T06:04:38;101526.34;;;13.28;48.23
4273;BME280;63887;53.656;9.810;2023-04-28T06:07:05;101526.53;;;15.37;42.32
4273;BME280;63887;53.656;9.810;2023-04-28T06:09:32;101521.03;;;16.22;39.71
4273;BME280;63887;53.656;9.810;2023-04-28T06:11:59;101512.25;;;16.87;38.06
4273;BME280;63887;53.656;9.810;2023-04-28T06:14:25;101516.00;;;17.72;36.32
4273;BME280;63887;53.656;9.810;2023-04-28T06:16:53;101517.13;;;18.04;34.58
4273;BME280;63887;53.656;9.810;2023-04-28T06:19:19;101516.69;;;18.92;33.95
4273;BME280;63887;53.656;9.810;2023-04-28T06:21:46;101510.97;;;18.74;32.38
4273;BME280;63887;53.656;9.810;2023-04-28T06:24:14;101511.50;;;19.13;32.09
4273;BME280;63887;53.656;9.810;2023-04-28T06:26:41;101514.53;;;17.92;33.57
4273;BME280;63887;53.656;9.810;2023-04-28T06:29:07;101507.44;;;17.79;32.88
4273;BME280;63887;53.656;9.810;2023-04-28T06:31:34;101510.22;;;18.61;31.14
4273;BME280;63887;53.656;9.810;2023-04-28T06:34:01;101517.13;;;18.63;31.00
4273;BME280;63887;53.656;9.810;2023-04-28T06:36:28;101510.25;;;18.37;31.85
4273;BME280;63887;53.656;9.810;2023-04-28T06:38:54;101505.09;;;19.60;28.69
4273;BME280;63887;53.656;9.810;2023-04-28T06:41:21;101502.31;;;17.52;34.21
4273;BME280;63887;53.656;9.810;2023-04-28T06:43:47;101501.47;;;18.47;30.22
4273;BME280;63887;53.656;9.810;2023-04-28T06:46:15;101501.47;;;18.47;30.20
4273;BME280;63887;53.656;9.810;2023-04-28T06:48:41;101497.72;;;17.18;33.71
4273;BME280;63887;53.656;9.810;2023-04-28T06:51:09;101497.53;;;17.94;32.63
4273;BME280;63887;53.656;9.810;2023-04-28T06:53:35;101498.41;;;17.45;32.99
4273;BME280;63887;53.656;9.810;2023-04-28T06:56:02;101501.97;;;18.17;30.94
4273;BME280;63887;53.656;9.810;2023-04-28T06:58:29;101497.41;;;17.72;31.01
4273;BME280;63887;53.656;9.810;2023-04-28T07:00:55;101500.84;;;17.85;31.01
4273;BME280;63887;53.656;9.810;2023-04-28T07:03:22;101495.16;;;17.29;32.37
4273;BME280;63887;53.656;9.810;2023-04-28T07:05:48;101496.16;;;17.52;33.51
4273;BME280;63887;53.656;9.810;2023-04-28T07:08:16;101496.22;;;18.70;30.23
4273;BME280;63887;53.656;9.810;2023-04-28T07:10:42;101491.53;;;18.38;31.51
4273;BME280;63887;53.656;9.810;2023-04-28T07:13:09;101483.19;;;17.73;31.52
4273;BME280;63887;53.656;9.810;2023-04-28T07:15:35;101484.91;;;16.99;32.54
4273;BME280;63887;53.656;9.810;2023-04-28T07:18:02;101489.28;;;16.22;32.98
4273;BME280;63887;53.656;9.810;2023-04-28T07:20:28;101478.84;;;16.06;33.32
4273;BME280;63887;53.656;9.810;2023-04-28T07:22:55;101486.44;;;15.57;33.53
4273;BME280;63887;53.656;9.810;2023-04-28T07:25:23;101474.88;;;15.17;34.59
4273;BME280;63887;53.656;9.810;2023-04-28T07:27:49;101473.13;;;14.75;38.57
4273;BME280;63887;53.656;9.810;2023-04-28T07:30:16;101483.66;;;15.17;35.87
4273;BME280;63887;53.656;9.810;2023-04-28T07:32:42;101473.69;;;14.94;37.29
4273;BME280;63887;53.656;9.810;2023-04-28T07:35:09;101470.53;;;14.45;35.65
4273;BME280;63887;53.656;9.810;2023-04-28T07:37:35;101468.38;;;13.76;37.46
4273;BME280;63887;53.656;9.810;2023-04-28T07:40:03;101466.81;;;13.87;39.38
4273;BME280;63887;53.656;9.810;2023-04-28T07:42:30;101470.78;;;13.94;38.53
4273;BME280;63887;53.656;9.810;2023-04-28T07:44:57;101467.59;;;13.89;36.98
4273;BME280;63887;53.656;9.810;2023-04-28T07:47:24;101465.47;;;13.80;37.44
4273;BME280;63887;53.656;9.810;2023-04-28T07:49:50;101482.16;;;13.65;38.99
4273;BME280;63887;53.656;9.810;2023-04-28T07:52:17;101471.50;;;13.35;39.30
4273;BME280;63887;53.656;9.810;2023-04-28T07:54:43;101471.19;;;13.41;37.82
4273;BME280;63887;53.656;9.810;2023-04-28T07:57:10;101473.38;;;13.33;40.21
4273;BME280;63887;53.656;9.810;2023-04-28T07:59:38;101465.75;;;13.44;39.11
4273;BME280;63887;53.656;9.810;2023-04-28T08:02:05;101458.44;;;13.49;39.40
4273;BME280;63887;53.656;9.810;2023-04-28T08:04:32;101456.97;;;13.75;40.90
4273;BME280;63887;53.656;9.810;2023-04-28T08:06:59;101455.28;;;13.74;37.28
4273;BME280;63887;53.656;9.810;2023-04-28T08:09:25;101452.53;;;13.76;38.34
4273;BME280;63887;53.656;9.810;2023-04-28T08:11:52;101453.41;;;14.06;37.21
4273;BME280;63887;53.656;9.810;2023-04-28T08:14:18;101444.38;;;13.64;38.67
4273;BME280;63887;53.656;9.810;2023-04-28T08:16:47;101435.19;;;13.87;37.17
4273;BME280;63887;53.656;9.810;2023-04-28T08:19:13;101444.72;;;13.74;38.01
4273;BME280;63887;53.656;9.810;2023-04-28T08:21:40;101442.03;;;13.60;37.68
4273;BME280;63887;53.656;9.810;2023-04-28T08:24:06;101437.44;;;13.48;39.38
4273;BME280;63887;53.656;9.810;2023-04-28T08:26:35;101437.41;;;13.79;38.71
4273;BME280;63887;53.656;9.810;2023-04-28T08:29:02;101428.53;;;13.80;37.38
4273;BME280;63887;53.656;9.810;2023-04-28T08:31:28;101429.84;;;13.10;37.08
4273;BME280;63887;53.656;9.810;2023-04-28T08:33:56;101430.88;;;13.39;39.72
4273;BME280;63887;53.656;9.810;2023-04-28T08:36:22;101433.78;;;13.19;38.23
4273;BME280;63887;53.656;9.810;2023-04-28T08:38:53;101434.78;;;13.48;38.27
4273;BME280;63887;53.656;9.810;2023-04-28T08:41:19;101435.66;;;13.32;38.67
4273;BME280;63887;53.656;9.810;2023-04-28T08:43:47;101421.97;;;13.26;38.68
4273;BME280;63887;53.656;9.810;2023-04-28T08:46:13;101423.63;;;13.11;39.73
4273;BME280;63887;53.656;9.810;2023-04-28T08:48:41;101420.69;;;13.33;39.61
4273;BME280;63887;53.656;9.810;2023-04-28T08:51:13;101416.34;;;13.48;39.60
4273;BME280;63887;53.656;9.810;2023-04-28T08:53:44;101421.63;;;13.48;39.15
4273;BME280;63887;53.656;9.810;2023-04-28T08:56:15;101414.97;;;13.72;38.66
4273;BME280;63887;53.656;9.810;2023-04-28T08:58:43;101418.09;;;13.79;39.61
4273;BME280;63887;53.656;9.810;2023-04-28T09:01:09;101417.34;;;13.61;38.91
4273;BME280;63887;53.656;9.810;2023-04-28T09:03:35;101410.13;;;13.64;40.15
4273;BME280;63887;53.656;9.810;2023-04-28T09:06:02;101409.53;;;14.05;38.47
4273;BME280;63887;53.656;9.810;2023-04-28T09:08:30;101399.34;;;13.83;39.02
4273;BME280;63887;53.656;9.810;2023-04-28T09:11:06;101405.56;;;14.12;38.63
4273;BME280;63887;53.656;9.810;2023-04-28T09:13:33;101393.50;;;14.08;38.59
4273;BME280;63887;53.656;9.810;2023-04-28T09:16:01;101401.28;;;13.95;38.38
4273;BME280;63887;53.656;9.810;2023-04-28T09:18:28;101389.53;;;13.71;40.03
4273;BME280;63887;53.656;9.810;2023-04-28T09:21:02;101392.44;;;13.96;39.05
4273;BME280;63887;53.656;9.810;2023-04-28T09:23:30;101379.19;;;14.12;40.75
4273;BME280;63887;53.656;9.810;2023-04-28T09:25:59;101380.63;;;14.18;40.59
4273;BME280;63887;53.656;9.810;2023-04-28T09:28:26;101380.25;;;14.24;40.78
4273;BME280;63887;53.656;9.810;2023-04-28T09:30:52;101377.34;;;14.43;39.32
4273;BME280;63887;53.656;9.810;2023-04-28T09:33:19;101374.72;;;14.28;39.02
4273;BME280;63887;53.656;9.810;2023-04-28T09:35:46;101370.66;;;14.37;39.25
4273;BME280;63887;53.656;9.810;2023-04-28T09:38:12;101374.69;;;14.43;39.75
4273;BME280;63887;53.656;9.810;2023-04-28T09:40:51;101381.34;;;14.64;39.52
4273;BME280;63887;53.656;9.810;2023-04-28T09:43:29;101381.34;;;14.64;38.54
4273;BME280;63887;53.656;9.810;2023-04-28T09:45:56;101375.13;;;14.51;37.97
4273;BME280;63887;53.656;9.810;2023-04-28T09:48:28;101371.94;;;14.60;40.31
4273;BME280;63887;53.656;9.810;2023-04-28T09:50:55;101375.97;;;14.80;38.14
4273;BME280;63887;53.656;9.810;2023-04-28T09:53:23;101370.88;;;14.48;38.15
4273;BME280;63887;53.656;9.810;2023-04-28T09:55:53;101368.34;;;14.47;38.33
4273;BME280;63887;53.656;9.810;2023-04-28T09:58:20;101361.28;;;14.47;37.84
4273;BME280;63887;53.656;9.810;2023-04-28T10:00:51;101361.69;;;14.25;39.31
4273;BME280;63887;53.656;9.810;2023-04-28T10:03:20;101347.81;;;14.08;39.07
4273;BME280;63887;53.656;9.810;2023-04-28T10:05:47;101347.19;;;14.32;39.24
4273;BME280;63887;53.656;9.810;2023-04-28T10:08:16;101350.81;;;14.46;39.73
4273;BME280;63887;53.656;9.810;2023-04-28T10:10:44;101345.53;;;14.74;38.82
4273;BME280;63887;53.656;9.810;2023-04-28T10:13:15;101346.00;;;14.52;38.76
4273;BME280;63887;53.656;9.810;2023-04-28T10:15:42;101341.00;;;14.48;39.01
4273;BME280;63887;53.656;9.810;2023-04-28T10:18:09;101337.13;;;14.68;40.82
4273;BME280;63887;53.656;9.810;2023-04-28T10:20:36;101341.09;;;14.75;38.07
4273;BME280;63887;53.656;9.810;2023-04-28T10:23:18;101334.00;;;14.32;39.97
4273;BME280;63887;53.656;9.810;2023-04-28T10:25:53;101331.06;;;14.37;39.58
4273;BME280;63887;53.656;9.810;2023-04-28T10:28:22;101331.25;;;14.20;41.47
4273;BME280;63887;53.656;9.810;2023-04-28T10:31:10;101323.94;;;14.53;39.87
4273;BME280;63887;53.656;9.810;2023-04-28T10:33:37;101314.78;;;14.30;41.13
4273;BME280;63887;53.656;9.810;2023-04-28T10:36:04;101315.13;;;14.24;40.37
4273;BME280;63887;53.656;9.810;2023-04-28T10:38:32;101316.72;;;14.27;40.19
4273;BME280;63887;53.656;9.810;2023-04-28T10:40:58;101308.34;;;14.06;40.72
4273;BME280;63887;53.656;9.810;2023-04-28T10:43:38;101302.97;;;14.08;41.43
4273;BME280;63887;53.656;9.810;2023-04-28T10:46:06;101302.97;;;14.36;39.93
4273;BME280;63887;53.656;9.810;2023-04-28T10:48:55;101305.72;;;14.20;40.29
4273;BME280;63887;53.656;9.810;2023-04-28T10:51:28;101313.47;;;14.52;39.76
4273;BME280;63887;53.656;9.810;2023-04-28T10:54:15;101303.72;;;14.81;40.59
4273;BME280;63887;53.656;9.810;2023-04-28T10:57:18;101304.75;;;14.78;39.34
4273;BME280;63887;53.656;9.810;2023-04-28T10:59:47;101313.34;;;14.82;41.74
4273;BME280;63887;53.656;9.810;2023-04-28T11:02:37;101303.16;;;14.90;38.57
4273;BME280;63887;53.656;9.810;2023-04-28T11:05:15;101295.72;;;14.40;40.20
4273;BME280;63887;53.656;9.810;2023-04-28T11:11:11;101296.41;;;14.99;39.81
4273;BME280;63887;53.656;9.810;2023-04-28T11:13:37;101290.03;;;15.15;39.22
4273;BME280;63887;53.656;9.810;2023-04-28T11:16:05;101282.16;;;15.01;40.08
4273;BME280;63887;53.656;9.810;2023-04-28T11:18:48;101277.56;;;14.90;40.59
4273;BME280;63887;53.656;9.810;2023-04-28T11:21:15;101268.81;;;15.30;39.25
4273;BME280;63887;53.656;9.810;2023-04-28T11:23:42;101272.25;;;15.44;39.55
4273;BME280;63887;53.656;9.810;2023-04-28T11:26:09;101272.66;;;15.65;39.74
4273;BME280;63887;53.656;9.810;2023-04-28T11:28:35;101269.50;;;15.46;38.02
4273;BME280;63887;53.656;9.810;2023-04-28T11:31:12;101265.84;;;15.61;37.97
4273;BME280;63887;53.656;9.810;2023-04-28T11:33:44;101262.34;;;15.48;38.49
4273;BME280;63887;53.656;9.810;2023-04-28T11:36:21;101261.53;;;15.86;38.13
4273;BME280;63887;53.656;9.810;2023-04-28T11:38:48;101255.50;;;15.84;39.36
4273;BME280;63887;53.656;9.810;2023-04-28T11:41:15;101248.63;;;15.81;38.13
4273;BME280;63887;53.656;9.810;2023-04-28T11:43:41;101250.34;;;15.82;37.74
4273;BME280;63887;53.656;9.810;2023-04-28T11:46:08;101245.81;;;15.57;38.91
4273;BME280;63887;53.656;9.810;2023-04-28T11:48:36;101250.81;;;15.62;39.20
4273;BME280;63887;53.656;9.810;2023-04-28T11:51:03;101244.13;;;15.56;38.81
4273;BME280;63887;53.656;9.810;2023-04-28T11:53:42;101243.06;;;15.46;39.27
4273;BME280;63887;53.656;9.810;2023-04-28T11:56:09;101248.06;;;15.50;39.40
4273;BME280;63887;53.656;9.810;2023-04-28T11:58:37;101239.66;;;15.31;39.44
4273;BME280;63887;53.656;9.810;2023-04-28T12:01:07;101244.09;;;15.31;39.08
4273;BME280;63887;53.656;9.810;2023-04-28T12:03:42;101243.09;;;15.06;39.95
4273;BME280;63887;53.656;9.810;2023-04-28T12:06:09;101239.56;;;15.33;39.41
4273;BME280;63887;53.656;9.810;2023-04-28T12:08:35;101242.00;;;15.36;38.75
4273;BME280;63887;53.656;9.810;2023-04-28T12:11:08;101237.91;;;15.17;39.25
4273;BME280;63887;53.656;9.810;2023-04-28T12:13:35;101234.16;;;15.21;40.86
4273;BME280;63887;53.656;9.810;2023-04-28T12:16:04;101232.13;;;15.25;40.44
4273;BME280;63887;53.656;9.810;2023-04-28T12:18:31;101224.69;;;15.17;39.46
4273;BME280;63887;53.656;9.810;2023-04-28T12:20:59;101219.84;;;15.11;40.26
4273;BME280;63887;53.656;9.810;2023-04-28T12:23:29;101215.25;;;15.01;39.45
4273;BME280;63887;53.656;9.810;2023-04-28T12:25:56;101212.06;;;14.96;39.50
4273;BME280;63887;53.656;9.810;2023-04-28T12:28:23;101216.94;;;14.89;40.69
4273;BME280;63887;53.656;9.810;2023-04-28T12:31:02;101200.47;;;14.98;40.84
4273;BME280;63887;53.656;9.810;2023-04-28T12:33:29;101213.38;;;15.03;40.81
4273;BME280;63887;53.656;9.810;2023-04-28T12:35:59;101205.81;;;14.84;41.17
4273;BME280;63887;53.656;9.810;2023-04-28T12:38:26;101203.78;;;14.87;40.80
4273;BME280;63887;53.656;9.810;2023-04-28T12:40:52;101204.47;;;14.91;42.01
4273;BME280;63887;53.656;9.810;2023-04-28T12:43:19;101194.44;;;14.69;41.78
4273;BME280;63887;53.656;9.810;2023-04-28T12:45:47;101204.84;;;14.58;42.24
4273;BME280;63887;53.656;9.810;2023-04-28T12:48:14;101205.94;;;14.68;42.42
4273;BME280;63887;53.656;9.810;2023-04-28T12:50:40;101201.25;;;14.73;42.74
4273;BME280;63887;53.656;9.810;2023-04-28T12:53:08;101198.50;;;14.75;41.94
4273;BME280;63887;53.656;9.810;2023-04-28T12:55:35;101200.13;;;14.63;41.60
4273;BME280;63887;53.656;9.810;2023-04-28T12:58:03;101199.66;;;14.42;43.26
4273;BME280;63887;53.656;9.810;2023-04-28T13:00:29;101199.81;;;14.12;43.48
4273;BME280;63887;53.656;9.810;2023-04-28T13:02:56;101205.34;;;14.22;43.77
4273;BME280;63887;53.656;9.810;2023-04-28T13:05:23;101198.06;;;14.40;42.30
4273;BME280;63887;53.656;9.810;2023-04-28T13:07:49;101189.91;;;14.44;43.47
4273;BME280;63887;53.656;9.810;2023-04-28T13:10:18;101185.91;;;14.51;42.68
4273;BME280;63887;53.656;9.810;2023-04-28T13:12:45;101179.91;;;14.35;43.98